createdAt,value
2018-04-02T00:02:07.074Z,100324.45
2018-04-02T00:04:40.987Z,100323.14
2018-04-02T00:07:22.493Z,100326.89
2018-04-02T00:09:59.663Z,100322.20
2018-04-02T00:12:33.275Z,100324.33
2018-04-02T00:15:05.811Z,100323.44
2018-04-02T00:17:38.320Z,100316.31
2018-04-02T00:20:14.897Z,100312.95
2018-04-02T00:22:52.837Z,100314.63
2018-04-02T00:25:27.930Z,100310.86
2018-04-02T00:28:00.899Z,100308.81
2018-04-02T00:30:33.408Z,100307.13
2018-04-02T00:33:05.952Z,100312.16
2018-04-02T00:35:39.101Z,100313.00
2018-04-02T00:38:13.924Z,100309.59
2018-04-02T00:40:52.004Z,100313.82
2018-04-02T00:43:32.368Z,100312.61
2018-04-02T00:46:05.325Z,100310.92
2018-04-02T00:48:37.994Z,100310.12
2018-04-02T00:51:22.297Z,100310.12
2018-04-02T00:54:00.149Z,100317.25
2018-04-02T00:56:32.714Z,100320.17
2018-04-02T00:59:05.258Z,100310.50
2018-04-02T01:01:37.750Z,100315.98
2018-04-02T01:04:13.867Z,100312.66
2018-04-02T01:06:49.434Z,100316.84
2018-04-02T01:09:24.072Z,100312.68
2018-04-02T01:11:59.361Z,100317.30
2018-04-02T01:14:32.319Z,100319.83
2018-04-02T01:17:04.799Z,100319.88
2018-04-02T01:19:37.303Z,100315.22
2018-04-02T01:22:10.524Z,100325.76
2018-04-02T01:24:44.761Z,100321.47
2018-04-02T01:27:20.601Z,100331.99
2018-04-02T01:29:59.405Z,100330.22
2018-04-02T01:32:32.001Z,100335.71
2018-04-02T01:35:04.529Z,100329.38
2018-04-02T01:37:37.030Z,100328.56
2018-04-02T01:40:14.412Z,100325.13
2018-04-02T01:42:53.580Z,100336.55
2018-04-02T01:45:29.335Z,100327.69
2018-04-02T01:48:02.268Z,100325.59
2018-04-02T01:50:35.043Z,100324.33
2018-04-02T01:53:07.526Z,100321.44
2018-04-02T01:55:49.601Z,100317.98
2018-04-02T01:58:23.903Z,100313.30
2018-04-02T02:00:59.876Z,100315.45
2018-04-02T02:03:32.390Z,100318.81
2018-04-02T02:06:05.706Z,100310.83
2018-04-02T02:08:38.431Z,100315.88
2018-04-02T02:11:15.376Z,100306.98
2018-04-02T02:13:54.526Z,100311.97
2018-04-02T02:16:28.404Z,100311.99
2018-04-02T02:19:00.966Z,100309.52
2018-04-02T02:21:33.505Z,100310.31
2018-04-02T02:24:06.134Z,100309.87
2018-04-02T02:26:39.718Z,100307.47
2018-04-02T02:29:15.490Z,100308.68
2018-04-02T02:31:57.752Z,100299.86
2018-04-02T02:34:31.512Z,100307.45
2018-04-02T02:37:04.042Z,100294.39
2018-04-02T02:39:36.548Z,100298.62
2018-04-02T02:42:13.921Z,100295.70
2018-04-02T02:44:48.281Z,100299.02
2018-04-02T02:47:22.832Z,100297.19
2018-04-02T02:49:58.823Z,100300.12
2018-04-02T02:52:31.472Z,100287.98
2018-04-02T02:55:04.004Z,100288.92
2018-04-02T02:57:36.497Z,100285.91
2018-04-02T03:00:09.773Z,100286.73
2018-04-02T03:02:49.079Z,100284.18
2018-04-02T03:05:26.831Z,100284.60
2018-04-02T03:08:01.126Z,100282.84
2018-04-02T03:10:33.834Z,100287.27
2018-04-02T03:13:06.371Z,100296.95
2018-04-02T03:15:39.125Z,100299.15
2018-04-02T03:18:25.568Z,100299.09
2018-04-02T03:20:59.289Z,100302.90
2018-04-02T03:23:32.339Z,100300.80
2018-04-02T03:26:05.279Z,100306.71
2018-04-02T03:28:40.063Z,100308.78
2018-04-02T03:31:29.261Z,100301.28
2018-04-02T03:34:02.654Z,100307.58
2018-04-02T03:36:35.262Z,100310.59
2018-04-02T03:39:08.412Z,100308.59
2018-04-02T03:41:46.600Z,100312.41
2018-04-02T03:44:22.080Z,100311.63
2018-04-02T03:46:59.296Z,100309.50
2018-04-02T03:49:31.878Z,100306.95
2018-04-02T03:52:04.452Z,100313.98
2018-04-02T03:54:36.963Z,100316.92
2018-04-02T03:57:12.999Z,100317.41
2018-04-02T03:59:48.056Z,100315.77
2018-04-02T04:02:24.085Z,100308.59
2018-04-02T04:04:58.926Z,100303.59
2018-04-02T04:07:31.763Z,100300.29
2018-04-02T04:10:05.509Z,100304.16
2018-04-02T04:12:38.020Z,100304.25
2018-04-02T04:15:13.516Z,100306.73
2018-04-02T04:17:57.038Z,100297.53
2018-04-02T04:20:30.955Z,100300.07
2018-04-02T04:23:03.548Z,100298.39
2018-04-02T04:25:36.118Z,100305.92
2018-04-02T04:28:08.797Z,100315.02
2018-04-02T04:31:00.547Z,100323.52
2018-04-02T04:33:33.170Z,100328.59
2018-04-02T04:36:05.667Z,100321.97
2018-04-02T04:38:38.154Z,100316.29
2018-04-02T04:41:16.738Z,100316.92
2018-04-02T04:43:52.059Z,100318.11
2018-04-02T04:46:26.479Z,100314.83
2018-04-02T04:48:59.638Z,100311.85
2018-04-02T04:51:32.594Z,100308.59
2018-04-02T04:54:05.043Z,100301.52
2018-04-02T04:56:43.943Z,100300.23
2018-04-02T04:59:25.973Z,100297.44
2018-04-02T05:02:00.038Z,100298.02
2018-04-02T05:04:32.634Z,100305.94
2018-04-02T05:07:05.139Z,100316.51
2018-04-02T05:09:37.622Z,100322.52
2018-04-02T05:12:10.594Z,100321.25
2018-04-02T05:14:45.534Z,100317.12
2018-04-02T05:17:20.328Z,100322.28
2018-04-02T05:19:53.716Z,100324.58
2018-04-02T05:22:27.115Z,100325.58
2018-04-02T05:24:59.838Z,100323.64
2018-04-02T05:27:32.385Z,100323.91
2018-04-02T05:30:04.861Z,100326.95
2018-04-02T05:32:37.714Z,100331.98
2018-04-02T05:35:11.437Z,100330.58
2018-04-02T05:37:47.092Z,100332.20
2018-04-02T05:40:23.595Z,100330.61
2018-04-02T05:42:56.971Z,100333.08
2018-04-02T05:45:30.690Z,100330.22
2018-04-02T05:48:03.243Z,100323.12
2018-04-02T05:50:35.737Z,100331.89
2018-04-02T05:53:08.219Z,100334.41
2018-04-02T05:55:43.783Z,100331.11
2018-04-02T05:58:23.878Z,100326.48
2018-04-02T06:00:57.243Z,100340.41
2018-04-02T06:03:29.858Z,100333.58
2018-04-02T06:06:02.379Z,100338.33
2018-04-02T06:08:34.866Z,100338.56
2018-04-02T06:11:07.366Z,100342.80
2018-04-02T06:13:42.292Z,100347.08
2018-04-02T06:16:22.170Z,100342.88
2018-04-02T06:18:55.494Z,100345.23
2018-04-02T06:21:30.026Z,100338.58
2018-04-02T06:24:02.650Z,100348.09
2018-04-02T06:26:42.407Z,100344.87
2018-04-02T06:29:21.296Z,100350.95
2018-04-02T06:31:55.257Z,100340.68
2018-04-02T06:34:29.177Z,100341.34
2018-04-02T06:37:01.893Z,100339.59
2018-04-02T06:39:34.334Z,100339.36
2018-04-02T06:42:06.836Z,100340.55
2018-04-02T06:44:40.401Z,100340.19
2018-04-02T06:47:16.768Z,100340.06
2018-04-02T06:49:51.780Z,100334.78
2018-04-02T06:52:25.720Z,100337.30
2018-04-02T06:54:59.728Z,100333.91
2018-04-02T06:57:32.255Z,100327.78
2018-04-02T07:00:04.758Z,100334.31
2018-04-02T07:02:37.262Z,100324.96
2018-04-02T07:05:11.082Z,100327.66
2018-04-02T07:07:49.472Z,100335.48
2018-04-02T07:10:28.014Z,100336.85
2018-04-02T07:13:01.008Z,100338.39
2018-04-02T07:15:33.494Z,100340.42
2018-04-02T07:18:06.012Z,100341.30
2018-04-02T07:20:38.494Z,100342.31
2018-04-02T07:23:14.146Z,100345.20
2018-04-02T07:25:49.504Z,100336.67
2018-04-02T07:28:23.564Z,100344.72
2018-04-02T07:31:00.713Z,100340.14
2018-04-02T07:33:33.343Z,100334.09
2018-04-02T07:36:13.494Z,100334.12
2018-04-02T07:38:48.147Z,100335.46
2018-04-02T07:41:21.857Z,100332.97
2018-04-02T07:44:00.611Z,100332.80
2018-04-02T07:46:37.990Z,100335.98
2018-04-02T07:49:21.442Z,100333.95
2018-04-02T07:51:56.266Z,100328.62
2018-04-02T07:54:30.520Z,100331.08
2018-04-02T07:57:03.304Z,100328.59
2018-04-02T07:59:36.605Z,100340.20
2018-04-02T08:02:10.811Z,100331.98
2018-04-02T08:04:51.545Z,100335.24
2018-04-02T08:07:29.688Z,100325.95
2018-04-02T08:10:02.289Z,100333.82
2018-04-02T08:12:34.843Z,100324.31
2018-04-02T08:15:07.354Z,100327.58
2018-04-02T08:17:41.333Z,100328.50
2018-04-02T08:20:16.905Z,100325.09
2018-04-02T08:22:53.975Z,100328.90
2018-04-02T08:25:27.762Z,100326.67
2018-04-02T08:28:00.731Z,100327.55
2018-04-02T08:30:33.503Z,100321.70
2018-04-02T08:33:06.343Z,100321.98
2018-04-02T08:35:39.016Z,100322.42
2018-04-02T08:38:15.897Z,100315.04
2018-04-02T08:40:59.895Z,100317.27
2018-04-02T08:43:32.402Z,100309.77
2018-04-02T08:46:04.874Z,100311.39
2018-04-02T10:10:40.312Z,100237.92
2018-04-02T10:13:19.242Z,100234.90
2018-04-02T10:16:00.260Z,100235.31
2018-04-02T10:18:32.820Z,100233.06
2018-04-02T10:21:05.303Z,100230.30
2018-04-02T10:23:37.803Z,100233.08
2018-04-02T10:26:11.739Z,100224.19
2018-04-02T10:28:47.078Z,100218.86
2018-04-02T10:31:27.752Z,100216.86
2018-04-02T10:34:00.810Z,100212.67
2018-04-02T10:36:33.289Z,100216.94
2018-04-02T10:39:05.787Z,100214.67
2018-04-02T10:41:38.319Z,100210.59
2018-04-02T10:44:16.919Z,100207.86
2018-04-02T10:46:56.786Z,100208.91
2018-04-02T10:49:30.602Z,100204.80
2018-04-02T10:52:03.189Z,100200.94
2018-04-02T10:54:35.671Z,100191.80
2018-04-02T10:57:08.166Z,100194.53
2018-04-02T10:59:46.384Z,100188.67
2018-04-02T11:02:19.403Z,100190.09
2018-04-02T11:04:52.200Z,100185.16
2018-04-02T11:07:24.735Z,100190.73
2018-04-02T11:09:58.618Z,100179.03
2018-04-02T11:12:31.181Z,100179.84
2018-04-02T11:15:03.622Z,100180.63
2018-04-02T11:17:36.118Z,100185.10
2018-04-02T11:20:08.597Z,100182.41
2018-04-02T11:22:42.350Z,100179.22
2018-04-02T11:25:15.018Z,100163.58
2018-04-02T11:27:47.557Z,100159.75
2018-04-02T11:30:20.068Z,100151.98
2018-04-02T11:32:52.567Z,100153.91
2018-04-02T11:35:25.039Z,100150.15
2018-04-02T11:37:57.557Z,100153.27
2018-04-02T11:40:30.040Z,100155.37
2018-04-02T11:43:02.539Z,100157.27
2018-04-02T11:45:35.013Z,100145.61
2018-04-02T11:48:07.532Z,100138.40
2018-04-02T11:50:40.040Z,100149.16
2018-04-02T11:53:12.589Z,100144.06
2018-04-02T11:55:45.106Z,100141.03
2018-04-02T11:58:17.608Z,100138.41
2018-04-02T12:00:50.089Z,100135.34
2018-04-02T12:03:22.586Z,100127.99
2018-04-02T12:05:55.062Z,100128.56
2018-04-02T12:08:27.568Z,100119.44
2018-04-02T12:11:00.046Z,100127.53
2018-04-02T12:13:32.543Z,100122.34
2018-04-02T12:16:05.020Z,100119.68
2018-04-02T12:18:37.515Z,100121.03
2018-04-02T12:21:10.467Z,100113.75
2018-04-02T12:23:43.002Z,100105.89
2018-04-02T12:26:15.476Z,100108.02
2018-04-02T12:28:47.978Z,100104.22
2018-04-02T12:31:20.464Z,100102.44
2018-04-02T12:33:52.965Z,100089.25
2018-04-02T12:36:25.462Z,100092.41
2018-04-02T12:38:57.954Z,100082.94
2018-04-02T12:41:30.426Z,100083.55
2018-04-02T12:44:02.932Z,100081.21
2018-04-02T12:46:35.414Z,100072.41
2018-04-02T12:49:07.915Z,100077.03
2018-04-02T12:51:40.444Z,100082.62
2018-04-02T12:54:12.960Z,100071.02
2018-04-02T12:56:45.447Z,100063.20
2018-04-02T12:59:17.981Z,100061.30
2018-04-02T13:01:50.484Z,100072.35
2018-04-02T13:04:22.984Z,100069.14
2018-04-02T13:06:55.462Z,100062.50
2018-04-02T13:09:27.962Z,100057.10
2018-04-02T13:12:00.448Z,100055.97
2018-04-02T13:14:32.955Z,100053.72
2018-04-02T13:17:05.441Z,100060.02
2018-04-02T13:19:37.944Z,100050.99
2018-04-02T13:22:11.190Z,100043.91
2018-04-02T13:24:43.776Z,100043.23
2018-04-02T13:27:16.233Z,100051.13
2018-04-02T13:29:48.782Z,100046.55
2018-04-02T13:32:21.270Z,100049.02
2018-04-02T13:34:53.774Z,100038.55
2018-04-02T13:37:26.260Z,100032.94
2018-04-02T13:39:58.774Z,100034.88
2018-04-02T13:42:31.258Z,100031.86
2018-04-02T13:45:03.762Z,100026.70
2018-04-02T13:47:36.247Z,100024.09
2018-04-02T13:50:08.759Z,100023.13
2018-04-02T13:52:41.270Z,100019.23
2018-04-02T13:55:13.783Z,100019.75
2018-04-02T13:57:46.312Z,100012.05
2018-04-02T14:00:18.810Z,100010.22
2018-04-02T14:02:51.295Z,99993.28
2018-04-02T14:05:23.801Z,100001.84
2018-04-02T14:07:56.303Z,100001.11
2018-04-02T14:10:28.803Z,99988.98
2018-04-02T14:13:01.303Z,99986.26
2018-04-02T14:15:33.797Z,99986.68
2018-04-02T14:18:06.307Z,99982.31
2018-04-02T14:20:40.006Z,99985.67
2018-04-02T14:23:12.524Z,99981.45
2018-04-02T14:25:45.028Z,99977.67
2018-04-02T14:28:17.532Z,99972.64
2018-04-02T14:30:50.012Z,99969.28
2018-04-02T14:33:22.519Z,99966.14
2018-04-02T14:35:55.003Z,99968.80
2018-04-02T14:38:27.515Z,99964.64
2018-04-02T14:41:00.000Z,99967.94
2018-04-02T14:43:32.506Z,99954.94
2018-04-02T14:46:04.990Z,99958.45
2018-04-02T14:48:37.502Z,99945.50
2018-04-02T14:51:10.023Z,99939.60
2018-04-02T14:53:42.563Z,99943.97
2018-04-02T14:56:15.066Z,99939.17
2018-04-02T14:58:47.589Z,99939.55
2018-04-02T15:01:20.092Z,99934.38
2018-04-02T15:03:52.587Z,99925.93
2018-04-02T15:06:25.063Z,99923.20
2018-04-02T15:08:57.563Z,99921.42
2018-04-02T15:11:30.048Z,99916.34
2018-04-02T15:14:02.551Z,99911.38
2018-04-02T15:16:35.032Z,99912.61
2018-04-02T15:19:07.530Z,99900.66
2018-04-02T15:21:41.114Z,99906.68
2018-04-02T15:24:13.626Z,99898.30
2018-04-02T15:26:46.109Z,99904.66
2018-04-02T15:29:18.663Z,99897.52
2018-04-02T15:31:51.151Z,99899.78
2018-04-02T15:34:23.655Z,99895.09
2018-04-02T15:36:56.151Z,99889.64
2018-04-02T15:39:28.655Z,99880.44
2018-04-02T15:42:01.129Z,99877.58
2018-04-02T15:44:33.635Z,99878.03
2018-04-02T15:47:06.125Z,99873.28
2018-04-02T15:49:38.631Z,99870.67
2018-04-02T15:52:11.970Z,99860.26
2018-04-02T15:54:44.477Z,99863.16
2018-04-02T15:57:16.956Z,99861.45
2018-04-02T15:59:49.515Z,99848.34
2018-04-02T16:02:21.961Z,99852.26
2018-04-02T16:04:54.470Z,99849.94
2018-04-02T16:07:26.953Z,99852.80
2018-04-02T16:09:59.450Z,99855.78
2018-04-02T16:12:31.930Z,99848.39
2018-04-02T16:15:04.443Z,99835.62
2018-04-02T16:17:36.928Z,99830.78
2018-04-02T16:20:09.466Z,99832.59
2018-04-02T16:22:41.967Z,99827.20
2018-04-02T16:25:14.469Z,99817.44
2018-04-02T16:27:47.085Z,99818.44
2018-04-02T16:30:19.614Z,99809.97
2018-04-02T16:32:52.093Z,99804.70
2018-04-02T16:35:24.602Z,99802.14
2018-04-02T16:37:57.078Z,99798.12
2018-04-02T16:40:29.602Z,99803.03
2018-04-02T16:43:02.091Z,99797.88
2018-04-02T16:45:34.593Z,99789.36
2018-04-02T16:48:07.067Z,99790.09
2018-04-02T16:50:39.796Z,99788.92
2018-04-02T16:53:12.308Z,99772.56
2018-04-02T16:55:44.823Z,99781.33
2018-04-02T16:58:17.310Z,99766.74
2018-04-02T17:00:49.814Z,99765.86
2018-04-02T17:03:22.298Z,99773.13
2018-04-02T17:05:54.794Z,99771.02
2018-04-02T17:08:27.294Z,99764.42
2018-04-02T17:10:59.794Z,99767.08
2018-04-02T17:13:32.908Z,99760.05
2018-04-02T17:16:05.416Z,99761.66
2018-04-02T17:18:37.890Z,99756.59
2018-04-02T17:21:10.399Z,99744.52
2018-04-02T17:23:42.960Z,99742.91
2018-04-02T17:26:15.471Z,99751.88
2018-04-02T17:28:47.974Z,99743.70
2018-04-02T17:31:20.475Z,99747.55
2018-04-02T17:33:52.964Z,99732.15
2018-04-02T17:36:25.481Z,99730.79
2018-04-02T17:38:57.966Z,99743.80
2018-04-02T17:41:30.471Z,99745.70
2018-04-02T17:44:02.964Z,99731.20
2018-04-02T17:46:35.466Z,99741.78
2018-04-02T17:49:07.945Z,99750.27
2018-04-02T17:51:41.358Z,99747.95
2018-04-02T17:54:14.811Z,99741.20
2018-04-02T17:56:47.533Z,99728.50
2018-04-02T17:59:20.043Z,99740.09
2018-04-02T18:01:52.538Z,99736.41
2018-04-02T18:04:25.083Z,99735.50
2018-04-02T18:06:57.902Z,99741.48
2018-04-02T18:09:30.378Z,99737.01
2018-04-02T18:12:02.877Z,99729.02
2018-04-02T18:14:35.889Z,99721.63
2018-04-02T18:17:08.433Z,99722.98
2018-04-02T18:19:41.932Z,99719.67
2018-04-02T18:22:14.450Z,99719.86
2018-04-02T18:24:46.970Z,99718.27
2018-04-02T18:27:19.527Z,99716.23
2018-04-02T18:29:52.133Z,99715.16
2018-04-02T18:32:24.618Z,99713.38
2018-04-02T18:34:57.111Z,99710.53
2018-04-02T18:37:29.584Z,99713.31
2018-04-02T18:40:02.082Z,99709.14
2018-04-02T18:42:34.567Z,99714.23
2018-04-02T18:45:07.102Z,99707.02
2018-04-02T18:47:39.716Z,99701.50
2018-04-02T18:50:12.875Z,99706.59
2018-04-02T18:52:46.391Z,99701.23
2018-04-02T18:55:19.363Z,99698.67
2018-04-02T18:57:52.570Z,99698.76
2018-04-02T19:00:25.100Z,99696.80
2018-04-02T19:02:57.577Z,99696.78
2018-04-02T19:05:30.074Z,99692.02
2018-04-02T19:08:02.562Z,99685.75
2018-04-02T19:10:35.065Z,99679.30
2018-04-02T19:13:07.538Z,99680.53
2018-04-02T19:15:40.752Z,99668.19
2018-04-02T19:18:14.042Z,99676.19
2018-04-02T19:20:46.603Z,99670.70
2018-04-02T19:23:19.469Z,99668.14
2018-04-02T19:25:52.170Z,99659.31
2018-04-02T19:28:24.723Z,99655.86
2018-04-02T19:30:57.255Z,99657.70
2018-04-02T19:33:29.762Z,99650.59
2018-04-02T19:36:02.271Z,99642.84
2018-04-02T19:38:34.774Z,99636.26
2018-04-02T19:41:07.284Z,99635.43
2018-04-02T19:43:40.562Z,99625.00
2018-04-02T19:46:17.893Z,99621.57
2018-04-02T19:48:50.558Z,99625.91
2018-04-02T19:51:23.431Z,99626.20
2018-04-02T19:53:55.944Z,99620.11
2018-04-02T19:56:28.447Z,99612.69
2018-04-02T19:59:00.940Z,99608.88
2018-04-02T20:01:33.438Z,99596.97
2018-04-02T20:04:05.918Z,99599.64
2018-04-02T20:06:38.448Z,99599.73
2018-04-02T20:09:16.283Z,99593.27
2018-04-02T20:11:49.595Z,99594.42
2018-04-02T20:14:22.259Z,99580.62
2018-04-02T20:16:54.754Z,99580.36
2018-04-02T20:19:28.329Z,99584.28
2018-04-02T20:22:00.878Z,99573.41
2018-04-02T20:24:33.358Z,99564.68
2018-04-02T20:27:05.869Z,99567.70
2018-04-02T20:29:38.348Z,99564.67
2018-04-02T20:32:11.628Z,99568.11
2018-04-02T20:34:49.284Z,99561.81
2018-04-02T20:37:23.128Z,99569.14
2018-04-02T20:39:57.827Z,99558.72
2018-04-02T20:42:30.325Z,99553.65
2018-04-02T20:45:02.811Z,99553.38
2018-04-02T20:47:35.311Z,99546.06
2018-04-02T20:50:07.788Z,99543.98
2018-04-02T20:52:40.328Z,99542.69
2018-04-02T20:55:18.655Z,99533.56
2018-04-02T20:57:53.252Z,99533.59
2018-04-02T21:00:26.563Z,99530.06
2018-04-02T21:02:59.297Z,99522.91
2018-04-02T21:05:31.823Z,99524.31
2018-04-02T21:08:04.333Z,99521.01
2018-04-02T21:10:36.819Z,99512.86
2018-04-02T21:13:09.417Z,99509.67
2018-04-02T21:15:45.837Z,99490.56
2018-04-02T21:18:19.857Z,99495.90
2018-04-02T21:20:52.451Z,99496.08
2018-04-02T21:23:24.954Z,99482.47
2018-04-02T21:25:57.434Z,99478.61
2018-04-02T21:28:29.960Z,99472.95
2018-04-02T21:31:02.432Z,99472.41
2018-04-02T21:33:34.939Z,99462.50
2018-04-02T21:36:07.426Z,99455.00
2018-04-02T21:38:41.398Z,99451.20
2018-04-02T21:41:15.681Z,99441.80
2018-04-02T21:43:54.122Z,99436.04
2018-04-02T21:46:27.403Z,99426.09
2018-04-02T21:49:00.333Z,99423.23
2018-04-02T21:51:32.896Z,99418.89
2018-04-02T21:54:05.346Z,99422.23
2018-04-02T21:56:37.843Z,99415.30
2018-04-02T21:59:16.277Z,99405.49
2018-04-02T22:01:52.017Z,99408.24
2018-04-02T22:04:26.168Z,99407.72
2018-04-02T22:07:09.999Z,99400.28
2018-04-02T22:09:50.077Z,99402.94
2018-04-02T22:12:23.073Z,99401.78
2018-04-02T22:14:59.759Z,99398.15
2018-04-02T22:17:32.279Z,99401.00
2018-04-02T22:20:04.770Z,99395.22
2018-04-02T22:22:37.266Z,99398.95
2018-04-02T22:25:10.006Z,99401.37
2018-04-02T22:27:50.546Z,99392.19
2018-04-02T22:33:02.868Z,99388.33
2018-04-02T22:35:35.346Z,99391.55
2018-04-02T22:38:07.842Z,99391.36
2018-04-02T22:40:40.947Z,99378.05
2018-04-02T22:43:14.246Z,99380.27
2018-04-02T22:45:47.595Z,99377.66
2018-04-02T22:48:20.661Z,99369.31
2018-04-02T22:50:53.270Z,99374.91
2018-04-02T22:53:25.780Z,99368.45
2018-04-02T22:55:58.287Z,99375.31
2018-04-02T22:58:30.863Z,99366.20
2018-04-02T23:01:03.360Z,99370.75
2018-04-02T23:03:35.870Z,99363.47
2018-04-02T23:06:08.369Z,99364.63
2018-04-02T23:08:41.675Z,99354.61
2018-04-02T23:11:20.100Z,99356.80
2018-04-02T23:13:54.599Z,99351.77
2018-04-02T23:16:27.216Z,99350.67
2018-04-02T23:18:59.725Z,99343.77
2018-04-02T23:21:32.215Z,99341.93
2018-04-02T23:24:04.715Z,99337.49
2018-04-02T23:26:37.206Z,99332.06
2018-04-02T23:29:10.643Z,99341.91
2018-04-02T23:31:45.833Z,99333.39
2018-04-02T23:34:19.725Z,99340.44
2018-04-02T23:36:53.120Z,99336.98
2018-04-02T23:39:27.483Z,99331.01
2018-04-02T23:42:00.016Z,99328.73
2018-04-02T23:44:32.526Z,99332.94
2018-04-02T23:47:05.015Z,99328.53
2018-04-02T23:49:37.518Z,99328.31
2018-04-02T23:52:10.408Z,99326.39
2018-04-02T23:54:44.165Z,99317.53
2018-04-02T23:57:20.806Z,99325.13
2018-04-02T23:59:53.765Z,99321.27
